createdAt,value
2022-08-02T00:00:40.710Z,45.94
2022-08-02T00:03:08.079Z,46.00
2022-08-02T00:05:35.543Z,46.40
2022-08-02T00:08:03.014Z,46.62
2022-08-02T00:10:30.718Z,46.53
2022-08-02T00:12:58.523Z,46.85
2022-08-02T00:15:26.458Z,47.01
2022-08-02T00:17:55.188Z,46.38
2022-08-02T00:20:22.640Z,46.57
2022-08-02T00:22:50.116Z,46.60
2022-08-02T00:25:17.574Z,46.77
2022-08-02T00:27:44.924Z,46.65
2022-08-02T00:30:13.165Z,46.56
2022-08-02T00:32:40.635Z,46.74
2022-08-02T00:35:10.182Z,47.36
2022-08-02T00:37:40.390Z,47.26
2022-08-02T00:40:10.052Z,47.87
2022-08-02T00:42:37.654Z,48.04
2022-08-02T00:45:06.339Z,47.86
2022-08-02T00:47:33.836Z,47.74
2022-08-02T00:50:01.281Z,48.19
2022-08-02T00:52:30.035Z,48.42
2022-08-02T00:54:57.495Z,48.40
2022-08-02T00:57:24.839Z,48.51
2022-08-02T00:59:52.351Z,48.73
2022-08-02T01:02:19.897Z,48.35
2022-08-02T01:04:47.266Z,48.92
2022-08-02T01:07:14.741Z,49.22
2022-08-02T01:09:45.358Z,49.10
2022-08-02T01:12:14.203Z,48.95
2022-08-02T01:14:46.170Z,48.76
2022-08-02T01:17:22.558Z,48.80
2022-08-02T01:20:03.569Z,49.23
2022-08-02T01:23:01.555Z,49.42
2022-08-02T01:26:08.773Z,49.44
2022-08-02T01:28:45.122Z,49.52
2022-08-02T01:31:24.318Z,49.14
2022-08-02T01:33:59.844Z,49.28
2022-08-02T01:36:34.835Z,49.29
2022-08-02T01:39:05.429Z,49.41
2022-08-02T01:41:35.950Z,49.68
2022-08-02T01:44:07.839Z,49.42
2022-08-02T01:46:38.592Z,49.47
2022-08-02T01:49:13.583Z,49.52
2022-08-02T01:52:02.200Z,49.77
2022-08-02T01:54:35.179Z,49.86
2022-08-02T01:57:10.256Z,49.59
2022-08-02T01:59:44.265Z,49.46
2022-08-02T02:02:15.454Z,49.87
2022-08-02T02:04:46.929Z,50.27
2022-08-02T02:07:17.108Z,50.29
2022-08-02T02:09:50.274Z,50.67
2022-08-02T02:12:21.345Z,50.35
2022-08-02T02:14:52.136Z,49.94
2022-08-02T02:18:10.761Z,49.67
2022-08-02T02:20:18.537Z,49.95
2022-08-02T02:22:48.430Z,50.59
2022-08-02T02:25:20.294Z,50.46
2022-08-02T02:28:04.794Z,49.77
2022-08-02T02:30:38.568Z,49.54
2022-08-02T02:33:08.382Z,49.92
2022-08-02T02:35:38.422Z,50.07
2022-08-02T02:38:11.222Z,50.79
2022-08-02T02:40:42.062Z,50.04
2022-08-02T02:43:12.694Z,50.53
2022-08-02T02:45:43.609Z,50.56
2022-08-02T02:48:13.752Z,50.57
2022-08-02T02:50:43.916Z,50.57
2022-08-02T02:53:13.864Z,50.58
2022-08-02T02:56:02.420Z,50.10
2022-08-02T02:58:32.138Z,50.13
2022-08-02T03:01:20.013Z,49.88
2022-08-02T03:03:49.470Z,49.97
2022-08-02T03:06:17.036Z,50.51
2022-08-02T03:08:44.540Z,50.52
2022-08-02T03:11:14.042Z,49.99
2022-08-02T03:13:41.725Z,50.34
2022-08-02T03:16:12.233Z,50.17
2022-08-02T03:18:42.466Z,49.45
2022-08-02T03:21:13.200Z,49.90
2022-08-02T03:23:43.328Z,49.81
2022-08-02T03:26:11.159Z,49.76
2022-08-02T03:28:38.658Z,49.48
2022-08-02T03:31:06.225Z,49.64
2022-08-02T03:33:36.310Z,50.22
2022-08-02T03:36:10.954Z,50.62
2022-08-02T03:38:39.376Z,50.63
2022-08-02T03:41:08.886Z,50.60
2022-08-02T03:43:39.070Z,50.94
2022-08-02T03:46:09.670Z,50.70
2022-08-02T03:48:39.697Z,50.57
2022-08-02T03:51:08.377Z,50.51
2022-08-02T03:53:37.261Z,50.86
2022-08-02T03:56:07.108Z,51.32
2022-08-02T03:58:34.904Z,51.52
2022-08-02T04:01:02.816Z,51.40
2022-08-02T04:03:30.530Z,51.14
2022-08-02T04:06:03.908Z,50.63
2022-08-02T04:08:35.513Z,50.90
2022-08-02T04:11:23.758Z,51.54
2022-08-02T04:13:51.911Z,51.46
2022-08-02T04:16:23.334Z,51.08
2022-08-02T04:18:56.363Z,50.93
2022-08-02T04:21:50.076Z,51.05
2022-08-02T04:24:24.599Z,51.31
2022-08-02T04:26:57.914Z,51.75
2022-08-02T04:29:36.694Z,51.51
2022-08-02T04:32:05.558Z,51.71
2022-08-02T04:34:33.129Z,51.58
2022-08-02T04:37:02.449Z,51.79
2022-08-02T04:39:29.822Z,51.53
2022-08-02T04:41:58.023Z,51.74
2022-08-02T04:44:25.762Z,51.85
2022-08-02T04:46:54.706Z,51.84
2022-08-02T04:49:22.232Z,51.86
2022-08-02T04:51:49.754Z,51.88
2022-08-02T04:54:18.546Z,51.92
2022-08-02T04:56:45.925Z,51.50
2022-08-02T04:59:13.401Z,51.60
2022-08-02T05:01:42.411Z,51.76
2022-08-02T05:04:10.222Z,51.68
2022-08-02T05:06:37.742Z,52.09
2022-08-02T05:09:05.119Z,52.30
2022-08-02T05:11:36.776Z,52.52
2022-08-02T05:14:05.860Z,52.76
2022-08-02T05:16:33.606Z,52.70
2022-08-02T05:19:01.339Z,52.78
2022-08-02T05:21:30.059Z,52.89
2022-08-02T05:23:57.399Z,52.81
2022-08-02T05:26:24.788Z,52.86
2022-08-02T05:28:53.504Z,53.13
2022-08-02T05:31:20.897Z,53.60
2022-08-02T05:33:48.351Z,53.70
2022-08-02T05:36:16.575Z,53.62
2022-08-02T05:38:49.961Z,53.66
2022-08-02T05:41:19.073Z,53.78
2022-08-02T05:43:46.981Z,53.69
2022-08-02T05:46:15.839Z,53.46
2022-08-02T05:48:44.994Z,53.44
2022-08-02T05:51:21.148Z,53.17
2022-08-02T05:53:55.852Z,53.18
2022-08-02T05:56:34.487Z,53.29
2022-08-02T05:59:07.141Z,52.96
2022-08-02T06:01:40.675Z,52.97
2022-08-02T06:04:10.510Z,52.82
2022-08-02T06:06:44.660Z,52.89
2022-08-02T06:09:26.930Z,52.53
2022-08-02T06:12:02.661Z,52.87
2022-08-02T06:14:33.087Z,52.27
2022-08-02T06:17:05.231Z,51.80
2022-08-02T06:19:46.863Z,51.78
2022-08-02T06:22:35.790Z,51.41
2022-08-02T06:25:06.436Z,50.96
2022-08-02T06:27:40.816Z,50.69
2022-08-02T06:30:10.652Z,50.47
2022-08-02T06:32:39.821Z,50.27
2022-08-02T06:35:08.951Z,50.49
2022-08-02T06:37:41.958Z,50.35
2022-08-02T06:40:25.241Z,49.56
2022-08-02T06:43:10.769Z,50.05
2022-08-02T06:45:38.813Z,49.61
2022-08-02T06:48:09.799Z,49.46
2022-08-02T06:50:42.206Z,49.10
2022-08-02T06:53:11.372Z,49.31
2022-08-02T06:55:43.359Z,49.26
2022-08-02T06:58:12.476Z,49.69
2022-08-02T07:00:40.434Z,49.25
2022-08-02T07:03:09.591Z,49.64
2022-08-02T07:05:37.160Z,48.89
2022-08-02T07:08:05.295Z,49.21
2022-08-02T07:10:32.776Z,48.49
2022-08-02T07:13:00.301Z,48.69
2022-08-02T07:15:27.736Z,48.45
2022-08-02T07:17:55.110Z,48.84
2022-08-02T07:20:23.927Z,47.87
2022-08-02T07:22:51.548Z,48.00
2022-08-02T07:25:18.949Z,47.67
2022-08-02T07:27:46.334Z,47.52
2022-08-02T07:30:17.166Z,47.65
2022-08-02T07:32:44.500Z,47.85
2022-08-02T07:35:13.362Z,47.37
2022-08-02T07:37:55.435Z,47.03
2022-08-02T07:40:29.680Z,47.50
2022-08-02T07:43:03.478Z,47.15
2022-08-02T07:45:33.139Z,47.07
2022-08-02T07:48:03.515Z,47.08
2022-08-02T07:50:30.944Z,47.06
2022-08-02T07:53:01.044Z,47.01
2022-08-02T07:55:38.996Z,46.58
2022-08-02T07:58:11.215Z,46.29
2022-08-02T08:00:42.749Z,45.47
2022-08-02T08:03:10.237Z,43.36
2022-08-02T08:05:37.751Z,40.76
2022-08-02T08:08:06.779Z,38.89
2022-08-02T08:10:34.290Z,36.84
2022-08-02T08:13:01.818Z,36.37
2022-08-02T08:15:29.709Z,34.49
2022-08-02T08:17:57.399Z,32.39
2022-08-02T08:20:25.072Z,31.73
2022-08-02T08:22:53.198Z,31.53
2022-08-02T08:25:22.473Z,31.08
2022-08-02T08:27:51.460Z,29.24
2022-08-02T08:30:20.974Z,29.40
2022-08-02T08:32:49.096Z,28.61
2022-08-02T08:35:16.585Z,28.02
2022-08-02T08:37:44.381Z,27.30
2022-08-02T08:40:13.680Z,26.32
2022-08-02T08:42:48.605Z,25.84
2022-08-02T08:45:18.260Z,24.94
2022-08-02T08:47:56.485Z,24.76
2022-08-02T08:50:26.563Z,24.25
2022-08-02T08:53:04.880Z,24.25
2022-08-02T08:55:34.840Z,23.24
2022-08-02T08:58:05.289Z,23.45
2022-08-02T09:00:35.935Z,22.80
2022-08-02T09:03:08.524Z,22.85
2022-08-02T09:05:37.152Z,22.06
2022-08-02T09:08:05.947Z,21.84
2022-08-02T09:10:41.549Z,21.25
2022-08-02T09:13:37.765Z,21.11
2022-08-02T09:16:11.563Z,20.17
2022-08-02T09:18:47.165Z,20.17
2022-08-02T09:21:17.360Z,18.97
2022-08-02T09:23:47.688Z,17.91
2022-08-02T09:26:19.152Z,18.34
2022-08-02T09:28:51.515Z,19.10
2022-08-02T09:31:22.619Z,18.88
2022-08-02T09:33:54.608Z,19.03
2022-08-02T09:36:24.053Z,18.59
2022-08-02T09:38:57.701Z,17.32
2022-08-02T09:41:27.220Z,17.53
2022-08-02T09:44:03.313Z,17.45
2022-08-02T09:50:58.459Z,17.69
2022-08-02T09:53:25.952Z,17.53
2022-08-02T09:55:56.546Z,17.45
2022-08-02T09:58:24.022Z,16.49
2022-08-02T10:01:01.671Z,17.37
2022-08-02T10:03:31.957Z,17.32
2022-08-02T10:06:03.340Z,17.36
2022-08-02T10:08:33.125Z,16.68
2022-08-02T10:11:01.879Z,16.80
2022-08-02T10:13:34.695Z,15.78
2022-08-02T10:16:07.235Z,15.78
2022-08-02T10:18:39.270Z,16.16
2022-08-02T10:21:13.987Z,15.86
2022-08-02T10:23:45.640Z,15.84
2022-08-02T10:26:18.559Z,15.98
2022-08-02T10:28:49.992Z,15.78
2022-08-02T10:31:25.448Z,13.89
2022-08-02T10:33:55.914Z,14.73
2022-08-02T10:36:27.148Z,15.12
2022-08-02T10:38:58.617Z,15.30
2022-08-02T10:41:45.827Z,15.37
2022-08-02T10:44:26.678Z,15.93
2022-08-02T10:47:25.876Z,15.43
2022-08-02T10:49:56.191Z,16.48
2022-08-02T10:52:25.092Z,16.24
2022-08-02T10:54:57.744Z,16.69
2022-08-02T10:57:27.638Z,17.78
2022-08-02T10:59:58.432Z,18.93
2022-08-02T11:02:40.162Z,20.18
2022-08-02T11:05:15.993Z,20.60
2022-08-02T11:07:47.889Z,20.60
2022-08-02T11:10:38.779Z,21.62
2022-08-02T11:13:12.033Z,21.09
2022-08-02T11:15:53.494Z,22.39
2022-08-02T11:18:44.192Z,22.68
2022-08-02T11:21:23.410Z,23.32
2022-08-02T11:23:51.757Z,23.51
2022-08-02T11:26:44.639Z,24.09
2022-08-02T11:29:15.808Z,24.76
2022-08-02T11:31:47.317Z,25.09
2022-08-02T11:34:36.433Z,24.94
2022-08-02T11:37:05.652Z,25.67
2022-08-02T11:39:33.097Z,25.85
2022-08-02T11:42:01.576Z,25.28
2022-08-02T11:44:39.151Z,25.26
2022-08-02T11:47:08.334Z,25.15
2022-08-02T11:49:38.517Z,25.30
2022-08-02T11:52:10.908Z,25.43
2022-08-02T11:54:41.319Z,25.82
2022-08-02T11:57:19.338Z,25.25
2022-08-02T11:59:50.560Z,25.24
2022-08-02T12:02:19.880Z,25.52
2022-08-02T12:04:58.467Z,25.68
2022-08-02T12:07:35.463Z,25.01
2022-08-02T12:10:06.877Z,25.66
2022-08-02T12:12:34.744Z,25.78
2022-08-02T12:15:02.203Z,26.48
2022-08-02T12:17:48.352Z,26.83
2022-08-02T12:20:17.413Z,27.21
2022-08-02T12:22:45.031Z,26.64
2022-08-02T12:25:33.432Z,27.09
2022-08-02T12:28:20.438Z,26.84
2022-08-02T12:30:53.644Z,27.45
2022-08-02T12:33:23.015Z,26.98
2022-08-02T12:35:52.272Z,27.07
2022-08-02T12:38:20.367Z,27.08
2022-08-02T12:40:48.573Z,27.10
2022-08-02T12:43:22.982Z,27.01
2022-08-02T12:45:53.417Z,26.47
2022-08-02T12:48:38.430Z,26.79
2022-08-02T12:51:25.154Z,27.35
2022-08-02T12:54:18.071Z,27.84
2022-08-02T12:56:46.006Z,28.32
2022-08-02T12:59:14.187Z,28.91
2022-08-02T13:01:42.586Z,28.95
2022-08-02T13:04:14.001Z,28.56
2022-08-02T13:06:45.749Z,29.49
2022-08-02T13:09:16.863Z,29.56
2022-08-02T13:11:45.044Z,29.90
2022-08-02T13:14:13.266Z,30.00
2022-08-02T13:16:42.687Z,30.06
2022-08-02T13:19:10.582Z,29.54
2022-08-02T13:21:41.606Z,29.65
2022-08-02T13:24:39.753Z,30.02
2022-08-02T13:27:09.600Z,29.85
2022-08-02T13:29:37.956Z,29.93
2022-08-02T13:32:06.068Z,30.18
2022-08-02T13:34:33.536Z,30.17
2022-08-02T13:37:02.151Z,30.04
2022-08-02T13:39:31.003Z,30.05
2022-08-02T13:41:58.332Z,30.10
2022-08-02T13:44:25.636Z,29.90
2022-08-02T13:46:53.003Z,30.12
2022-08-02T13:49:21.689Z,29.51
2022-08-02T13:52:06.367Z,28.98
2022-08-02T13:54:35.244Z,28.89
2022-08-02T13:57:02.951Z,28.43
2022-08-02T13:59:57.166Z,28.39
2022-08-02T14:02:18.693Z,28.51
2022-08-02T14:04:46.215Z,28.17
2022-08-02T14:07:13.573Z,28.03
2022-08-02T14:09:43.674Z,28.24
2022-08-02T14:12:12.644Z,28.29
2022-08-02T14:14:40.213Z,28.56
2022-08-02T14:17:07.622Z,29.36
2022-08-02T14:19:34.967Z,29.17
2022-08-02T14:22:11.020Z,28.68
2022-08-02T14:24:41.757Z,27.67
2022-08-02T14:27:09.497Z,27.85
2022-08-02T14:29:37.048Z,27.97
2022-08-02T14:32:05.103Z,27.90
2022-08-02T14:34:32.558Z,27.59
2022-08-02T14:36:59.920Z,27.52
2022-08-02T14:39:27.360Z,27.58
2022-08-02T14:42:13.471Z,27.36
2022-08-02T14:44:41.030Z,27.54
2022-08-02T14:47:08.725Z,27.42
2022-08-02T14:49:41.874Z,27.93
2022-08-02T14:52:13.194Z,27.68
2022-08-02T14:54:43.105Z,28.23
2022-08-02T14:57:11.898Z,27.93
2022-08-02T14:59:42.164Z,27.93
2022-08-02T15:02:13.182Z,28.14
2022-08-02T15:04:43.010Z,27.73
2022-08-02T15:07:12.747Z,27.95
2022-08-02T15:09:40.589Z,27.61
2022-08-02T15:12:11.571Z,27.55
2022-08-02T15:14:40.442Z,27.61
2022-08-02T15:17:09.372Z,28.08
2022-08-02T15:19:56.446Z,28.55
2022-08-02T15:22:25.119Z,28.51
2022-08-02T15:24:55.835Z,28.15
2022-08-02T15:27:25.068Z,28.90
2022-08-02T15:29:52.782Z,29.03
2022-08-02T15:32:20.130Z,28.95
2022-08-02T15:34:48.178Z,29.17
2022-08-02T15:37:15.593Z,28.77
2022-08-02T15:39:43.114Z,28.93
2022-08-02T15:42:11.262Z,29.17
2022-08-02T15:44:40.235Z,29.49
2022-08-02T15:47:08.017Z,29.21
2022-08-02T15:49:39.318Z,28.87
2022-08-02T15:52:08.587Z,29.31
2022-08-02T15:54:36.114Z,29.20
2022-08-02T15:57:03.548Z,29.45
2022-08-02T15:59:31.256Z,29.66
2022-08-02T16:02:00.626Z,30.38
2022-08-02T16:04:28.178Z,29.89
2022-08-02T16:06:55.651Z,30.59
2022-08-02T16:09:23.033Z,31.16
2022-08-02T16:11:50.654Z,30.52
2022-08-02T16:14:18.059Z,30.98
2022-08-02T16:16:46.209Z,31.46
2022-08-02T16:19:45.820Z,31.02
2022-08-02T16:22:03.119Z,30.99
2022-08-02T16:24:30.801Z,31.83
2022-08-02T16:26:58.262Z,30.91
2022-08-02T16:29:25.608Z,30.83
2022-08-02T16:31:52.937Z,30.86
2022-08-02T16:34:21.681Z,31.22
2022-08-02T16:36:49.051Z,30.88
2022-08-02T16:39:16.530Z,31.00
2022-08-02T16:41:51.037Z,30.50
2022-08-02T16:44:29.800Z,30.57
2022-08-02T16:47:00.891Z,30.32
2022-08-02T16:50:05.485Z,30.15
2022-08-02T16:52:19.342Z,30.56
2022-08-02T16:54:49.675Z,30.31
2022-08-02T16:57:19.783Z,30.46
2022-08-02T16:59:57.811Z,30.03
2022-08-02T17:02:26.033Z,30.60
2022-08-02T17:04:54.943Z,30.34
2022-08-02T17:08:07.565Z,30.24
2022-08-02T17:10:10.521Z,30.59
2022-08-02T17:12:39.220Z,31.00
2022-08-02T17:16:01.526Z,30.22
2022-08-02T17:17:56.026Z,30.43
2022-08-02T17:20:24.948Z,30.48
2022-08-02T17:22:52.533Z,30.80
2022-08-02T17:25:20.191Z,30.01
2022-08-02T17:27:47.695Z,29.92
2022-08-02T17:30:26.856Z,30.32
2022-08-02T17:32:57.455Z,30.36
2022-08-02T17:35:43.898Z,30.37
2022-08-02T17:38:17.789Z,30.31
2022-08-02T17:40:45.545Z,30.61
2022-08-02T17:43:14.695Z,30.03
2022-08-02T17:46:00.834Z,30.40
2022-08-02T17:48:50.142Z,30.68
2022-08-02T17:52:15.846Z,30.86
2022-08-02T17:54:12.864Z,30.50
2022-08-02T17:56:42.656Z,30.54
2022-08-02T17:59:12.907Z,30.29
2022-08-02T18:01:53.277Z,30.72
2022-08-02T18:04:27.726Z,30.83
2022-08-02T18:06:59.658Z,30.27
2022-08-02T18:09:32.300Z,30.97
2022-08-02T18:12:01.970Z,30.57
2022-08-02T18:14:30.374Z,30.69
2022-08-02T18:16:58.700Z,31.01
2022-08-02T18:19:33.119Z,30.63
2022-08-02T18:22:11.891Z,30.72
2022-08-02T18:24:40.636Z,30.15
2022-08-02T18:27:09.313Z,30.64
2022-08-02T18:29:38.564Z,30.85
2022-08-02T18:32:11.776Z,30.65
2022-08-02T18:34:39.729Z,31.07
2022-08-02T18:37:07.378Z,30.60
2022-08-02T18:39:38.562Z,30.34
2022-08-02T18:42:06.364Z,31.03
2022-08-02T18:44:33.694Z,31.05
2022-08-02T18:47:01.104Z,30.56
2022-08-02T18:49:46.817Z,31.18
2022-08-02T18:52:30.655Z,30.95
2022-08-02T18:55:00.420Z,31.41
2022-08-02T18:58:16.820Z,30.78
2022-08-02T19:00:17.024Z,31.59
2022-08-02T19:02:48.123Z,30.90
2022-08-02T19:05:16.253Z,31.35
2022-08-02T19:07:50.687Z,31.63
2022-08-02T19:10:23.236Z,31.08
2022-08-02T19:12:51.770Z,31.80
2022-08-02T19:15:19.582Z,32.00
2022-08-02T19:17:53.879Z,32.08
2022-08-02T19:20:24.090Z,32.15
2022-08-02T19:22:53.824Z,31.88
2022-08-02T19:28:10.521Z,32.36
2022-08-02T19:30:38.343Z,31.96
2022-08-02T19:33:09.373Z,31.97
2022-08-02T19:35:36.947Z,32.29
2022-08-02T19:38:24.275Z,32.26
2022-08-02T19:40:56.177Z,32.12
2022-08-02T19:44:26.683Z,32.62
2022-08-02T19:49:01.023Z,33.07
2022-08-02T19:51:54.637Z,32.80
2022-08-02T19:54:24.240Z,33.60
2022-08-02T19:57:16.994Z,33.68
2022-08-02T19:59:46.639Z,33.67
2022-08-02T20:02:15.977Z,33.68
2022-08-02T20:04:49.824Z,34.26
2022-08-02T20:07:48.209Z,34.32
2022-08-02T20:10:06.749Z,34.51
2022-08-02T20:12:41.161Z,34.61
2022-08-02T20:15:15.393Z,34.64
2022-08-02T20:17:47.185Z,34.36
2022-08-02T20:20:15.427Z,34.78
2022-08-02T20:23:01.549Z,34.23
2022-08-02T20:25:50.907Z,34.98
2022-08-02T20:28:23.290Z,35.03
2022-08-02T20:30:50.717Z,35.46
2022-08-02T20:33:21.790Z,35.13
2022-08-02T20:35:53.378Z,34.85
2022-08-02T20:38:25.065Z,35.49
2022-08-02T20:40:57.473Z,35.31
2022-08-02T20:43:31.104Z,35.64
2022-08-02T20:45:58.951Z,35.58
2022-08-02T20:48:30.054Z,35.11
2022-08-02T20:50:57.903Z,35.78
2022-08-02T20:53:29.769Z,35.54
2022-08-02T20:55:58.513Z,35.94
2022-08-02T20:58:28.081Z,35.73
2022-08-02T21:00:59.266Z,35.63
2022-08-02T21:06:16.998Z,36.03
2022-08-02T21:08:46.086Z,36.40
2022-08-02T21:11:14.006Z,36.49
2022-08-02T21:13:46.808Z,36.60
2022-08-02T21:16:30.465Z,36.41
2022-08-02T21:19:00.168Z,36.48
2022-08-02T21:21:28.228Z,36.84
2022-08-02T21:23:57.153Z,36.92
2022-08-02T21:26:28.024Z,36.86
2022-08-02T21:28:57.487Z,36.85
2022-08-02T21:31:29.862Z,37.23
2022-08-02T21:34:00.379Z,37.28
2022-08-02T21:36:30.793Z,37.04
2022-08-02T21:39:00.228Z,37.45
2022-08-02T21:41:39.720Z,37.59
2022-08-02T21:44:17.760Z,38.10
2022-08-02T21:46:46.702Z,38.01
2022-08-02T21:49:17.463Z,38.02
2022-08-02T21:51:49.297Z,37.73
2022-08-02T21:54:19.913Z,38.04
2022-08-02T21:56:50.209Z,38.28
2022-08-02T21:59:25.226Z,38.67
2022-08-02T22:01:56.797Z,37.84
2022-08-02T22:04:25.876Z,38.36
2022-08-02T22:06:54.902Z,38.52
2022-08-02T22:09:43.146Z,38.61
2022-08-02T22:12:16.687Z,38.68
2022-08-02T22:14:53.948Z,38.64
2022-08-02T22:17:51.270Z,38.89
2022-08-02T22:20:14.134Z,39.10
2022-08-02T22:22:42.919Z,39.38
2022-08-02T22:25:26.345Z,39.49
2022-08-02T22:28:38.113Z,39.91
2022-08-02T22:30:46.496Z,39.79
2022-08-02T22:33:38.739Z,39.90
2022-08-02T22:36:11.411Z,40.08
2022-08-02T22:38:39.414Z,40.01
2022-08-02T22:41:13.411Z,40.46
2022-08-02T22:43:40.890Z,40.44
2022-08-02T22:46:09.836Z,40.32
2022-08-02T22:48:43.794Z,40.34
2022-08-02T22:51:11.443Z,40.62
2022-08-02T22:53:41.714Z,41.13
2022-08-02T22:56:12.009Z,40.57
2022-08-02T22:58:53.029Z,32.83
2022-08-02T22:58:59.434Z,32.12
2022-08-02T22:59:06.150Z,36.39
2022-08-02T22:59:10.363Z,40.59
2022-08-02T23:01:28.372Z,40.96
2022-08-02T23:03:55.830Z,40.99
2022-08-02T23:06:23.171Z,41.11
2022-08-02T23:08:50.797Z,41.16
2022-08-02T23:11:18.187Z,41.14
2022-08-02T23:13:45.601Z,40.94
2022-08-02T23:16:37.396Z,41.08
2022-08-02T23:19:24.842Z,41.09
2022-08-02T23:22:02.376Z,41.40
2022-08-02T23:24:33.205Z,41.21
2022-08-02T23:27:01.158Z,41.21
2022-08-02T23:29:28.952Z,41.53
2022-08-02T23:31:56.311Z,41.45
2022-08-02T23:34:25.048Z,42.10
2022-08-02T23:36:52.459Z,41.71
2022-08-02T23:39:19.792Z,41.94
2022-08-02T23:41:49.295Z,42.01
2022-08-02T23:44:23.696Z,42.51
2022-08-02T23:46:52.161Z,42.18
2022-08-02T23:49:20.502Z,42.24
2022-08-02T23:51:50.857Z,42.62
2022-08-02T23:54:18.697Z,42.39
2022-08-02T23:56:46.570Z,42.48
2022-08-02T23:59:13.985Z,42.62
